Time;durP1;ratioP1;P1;durP2;ratioP2;P2;SDS_P1;SDS_P2;PMS_P1;PMS_P2;Temp;Humidity;BMP_temperature;BMP_pressure;BME280_temperature;BME280_humidity;BME280_pressure;Samples;Min_cycle;Max_cycle;Signal;HPM_P1;HPM_P2
2022/08/02 00:01:49;;;;;;;3.10;2.22;;;;;;;22.87;nan;-24452.19;5032050;28;20270;-66
2022/08/02 00:04:15;;;;;;;2.58;2.17;;;;;;;23.37;nan;-24465.59;5033838;28;20265;-65
2022/08/02 00:06:40;;;;;;;2.55;2.15;;;;;;;23.14;nan;-24459.38;5038231;28;20522;-64
2022/08/02 00:09:06;;;;;;;3.90;2.45;;;;;;;23.08;nan;-24457.84;5038330;28;20315;-66
2022/08/02 00:11:31;;;;;;;2.53;2.08;;;;;;;23.15;nan;-24459.66;5035911;28;20262;-66
2022/08/02 00:13:57;;;;;;;3.00;2.22;;;;;;;22.79;nan;-24449.84;5037396;28;20258;-65
2022/08/02 00:16:22;;;;;;;2.83;2.25;;;;;;;22.95;nan;-24454.25;5037759;28;20182;-67
2022/08/02 00:18:48;;;;;;;3.60;2.63;;;;;;;22.56;nan;-24443.59;5036599;28;20198;-66
2022/08/02 00:21:14;;;;;;;2.95;2.40;;;;;;;22.84;nan;-24451.22;5036773;28;20197;-66
2022/08/02 00:23:40;;;;;;;3.38;2.20;;;;;;;22.95;nan;-24454.25;5037315;28;20284;-65
2022/08/02 00:26:06;;;;;;;2.75;2.38;;;;;;;22.96;nan;-24454.41;5037863;28;20254;-66
2022/08/02 00:28:31;;;;;;;2.97;2.42;;;;;;;23.14;nan;-24459.38;5037070;28;20297;-66
2022/08/02 00:30:57;;;;;;;3.95;2.40;;;;;;;22.94;nan;-24453.84;5037347;28;20174;-66
2022/08/02 00:33:23;;;;;;;5.25;2.67;;;;;;;22.98;nan;-24455.09;5038098;28;20183;-66
2022/08/02 00:35:48;;;;;;;3.22;2.75;;;;;;;22.50;nan;-24441.94;5037964;28;20171;-65
2022/08/02 00:38:14;;;;;;;3.28;2.63;;;;;;;22.92;nan;-24453.44;5038408;28;20171;-65
2022/08/02 00:40:40;;;;;;;2.90;2.33;;;;;;;23.04;nan;-24456.59;5038048;28;20197;-66
2022/08/02 00:43:07;;;;;;;3.65;2.65;;;;;;;22.88;nan;-24452.47;5037175;28;20337;-66
2022/08/02 00:45:35;;;;;;;2.72;2.38;;;;;;;22.95;nan;-24454.13;5037027;28;20194;-65
2022/08/02 00:48:01;;;;;;;2.83;2.53;;;;;;;22.60;nan;-24444.72;5036677;28;20241;-66
2022/08/02 00:50:27;;;;;;;3.60;2.50;;;;;;;22.85;nan;-24451.63;5037179;28;20606;-67
2022/08/02 00:52:52;;;;;;;4.60;2.83;;;;;;;22.64;nan;-24445.69;5017751;28;20615;-66
2022/08/02 00:55:18;;;;;;;3.28;2.45;;;;;;;22.57;nan;-24443.88;5027516;28;20639;-66
2022/08/02 00:57:44;;;;;;;4.45;2.58;;;;;;;22.71;nan;-24447.75;5036134;28;20179;-65
2022/08/02 01:00:10;;;;;;;3.58;2.55;;;;;;;22.48;nan;-24441.41;5037603;28;20223;-66
2022/08/02 01:02:35;;;;;;;3.33;2.55;;;;;;;22.68;nan;-24446.94;5037585;28;20257;-66
2022/08/02 01:05:01;;;;;;;3.33;2.28;;;;;;;22.48;nan;-24441.53;5036815;28;20164;-65
2022/08/02 01:07:26;;;;;;;2.67;2.33;;;;;;;22.43;nan;-24440.16;5036744;28;20681;-66
2022/08/02 01:09:52;;;;;;;3.72;2.67;;;;;;;22.44;nan;-24440.28;5037372;28;20159;-65
2022/08/02 01:12:17;;;;;;;3.35;2.55;;;;;;;22.62;nan;-24445.13;5037212;28;20175;-66
2022/08/02 01:14:47;;;;;;;3.38;2.13;;;;;;;22.64;nan;-24445.81;5037471;28;20219;-65
2022/08/02 01:17:28;;;;;;;3.67;2.40;;;;;;;22.24;nan;-24434.75;5033653;28;20274;-66
2022/08/02 01:20:09;;;;;;;4.70;2.42;;;;;;;22.14;nan;-24432.00;5032393;28;20167;-64
2022/08/02 01:23:00;;;;;;;3.10;2.25;;;;;;;22.53;nan;-24442.78;5050104;28;20467;-66
2022/08/02 01:25:36;;;;;;;2.78;2.28;;;;;;;22.64;nan;-24445.69;5034921;28;20171;-66
2022/08/02 01:28:16;;;;;;;3.00;2.70;;;;;;;22.50;nan;-24441.81;5034541;28;20175;-66
2022/08/02 01:30:43;;;;;;;3.20;2.22;;;;;;;22.44;nan;-24440.44;5034475;28;20619;-66
2022/08/02 01:33:15;;;;;;;3.50;2.45;;;;;;;22.55;nan;-24443.19;5034379;28;20167;-67
2022/08/02 01:35:44;;;;;;;2.63;2.22;;;;;;;22.22;nan;-24434.19;5034057;28;20270;-67
2022/08/02 01:38:20;;;;;;;3.20;2.30;;;;;;;22.10;nan;-24430.88;5033403;28;20247;-66
2022/08/02 01:40:48;;;;;;;2.70;2.42;;;;;;;22.13;nan;-24431.84;5033302;28;20181;-67
2022/08/02 01:43:16;;;;;;;2.60;2.38;;;;;;;22.47;nan;-24441.25;5033840;28;20294;-66
2022/08/02 01:45:43;;;;;;;3.30;2.30;;;;;;;22.59;nan;-24444.44;5034301;28;20182;-67
2022/08/02 01:48:10;;;;;;;2.97;2.47;;;;;;;22.52;nan;-24442.38;5033901;28;20186;-66
2022/08/02 01:50:36;;;;;;;2.78;2.00;;;;;;;22.60;nan;-24444.72;5034026;28;20172;-66
2022/08/02 01:53:06;;;;;;;3.05;2.22;;;;;;;22.31;nan;-24436.84;5032861;28;20182;-67
2022/08/02 01:55:38;;;;;;;2.63;2.30;;;;;;;22.62;nan;-24445.25;5017026;28;20248;-67
2022/08/02 01:58:06;;;;;;;2.42;2.05;;;;;;;22.73;nan;-24448.19;5033833;28;20168;-66
2022/08/02 02:00:35;;;;;;;2.50;2.30;;;;;;;22.59;nan;-24444.44;5033026;28;20213;-65
2022/08/02 02:03:01;;;;;;;2.28;2.00;;;;;;;;;;5032933;28;20705;-67
2022/08/02 02:05:30;;;;;;;3.13;2.45;;;;;;;22.37;nan;-24438.34;5033486;28;20258;-67
2022/08/02 02:07:59;;;;;;;2.72;2.20;;;;;;;22.45;nan;-24440.56;5032445;28;20178;-66
2022/08/02 02:10:30;;;;;;;3.15;2.20;;;;;;;22.42;nan;-24439.75;5032791;28;20274;-66
2022/08/02 02:13:00;;;;;;;3.20;2.40;;;;;;;21.46;nan;-24413.44;5029434;28;20237;-67
2022/08/02 02:15:28;;;;;;;2.47;2.08;;;;;;;22.52;nan;-24442.38;5032862;28;20195;-67
2022/08/02 02:17:56;;;;;;;2.65;2.30;;;;;;;22.24;nan;-24434.88;5032977;28;20183;-67
2022/08/02 02:20:21;;;;;;;3.70;2.30;;;;;;;22.43;nan;-24440.16;5032873;28;20513;-66
2022/08/02 02:22:47;;;;;;;2.80;2.00;;;;;;;22.16;nan;-24432.69;5033286;28;20210;-67
2022/08/02 02:25:14;;;;;;;3.22;2.25;;;;;;;22.65;nan;-24446.09;5033435;28;20178;-66
2022/08/02 02:28:02;;;;;;;4.68;2.88;;;;;;;22.60;nan;-24444.72;5032381;28;20225;-66
2022/08/02 02:30:30;;;;;;;4.25;2.88;;;;;;;22.50;nan;-24441.94;5033274;28;20529;-66
2022/08/02 02:32:59;;;;;;;3.25;2.30;;;;;;;22.58;nan;-24444.16;5032702;28;20274;-67
2022/08/02 02:35:29;;;;;;;3.25;2.53;;;;;;;22.47;nan;-24441.25;5033215;28;20174;-66
2022/08/02 02:37:57;;;;;;;2.15;1.92;;;;;;;22.64;nan;-24445.81;5032758;28;20202;-67
2022/08/02 02:40:26;;;;;;;4.55;3.13;;;;;;;22.44;nan;-24440.44;5032718;28;20160;-66
2022/08/02 02:42:52;;;;;;;4.85;3.17;;;;;;;22.58;nan;-24444.16;5032498;28;20593;-67
2022/08/02 02:45:20;;;;;;;3.80;2.45;;;;;;;22.43;nan;-24440.00;5032441;28;20233;-67
2022/08/02 02:47:48;;;;;;;3.80;2.15;;;;;;;22.56;nan;-24443.59;5032336;28;20540;-67
2022/08/02 02:50:15;;;;;;;3.17;2.25;;;;;;;22.37;nan;-24438.34;5032800;28;20210;-66
2022/08/02 02:52:41;;;;;;;2.58;1.85;;;;;;;22.03;nan;-24429.22;5032667;28;20262;-66
2022/08/02 02:55:08;;;;;;;2.75;2.20;;;;;;;22.00;nan;-24428.38;5032239;28;20262;-65
2022/08/02 02:57:35;;;;;;;2.92;2.22;;;;;;;21.91;nan;-24425.91;5031640;28;20186;-67
2022/08/02 03:00:01;;;;;;;2.83;2.10;;;;;;;21.95;nan;-24426.88;5031488;28;20229;-66
2022/08/02 03:02:27;;;;;;;3.55;2.40;;;;;;;22.11;nan;-24431.28;5031544;28;20293;-66
2022/08/02 03:04:55;;;;;;;2.85;2.38;;;;;;;21.99;nan;-24427.97;5030845;28;20262;-66
2022/08/02 03:07:20;;;;;;;4.65;2.30;;;;;;;21.88;nan;-24425.06;5032494;28;20187;-65
2022/08/02 03:09:46;;;;;;;3.38;2.58;;;;;;;21.43;nan;-24412.59;5031869;28;20183;-66
2022/08/02 03:12:11;;;;;;;2.72;2.10;;;;;;;21.38;nan;-24411.34;5031393;28;20164;-66
2022/08/02 03:14:43;;;;;;;3.00;2.08;;;;;;;21.62;nan;-24417.72;5028930;28;20658;-66
2022/08/02 03:17:08;;;;;;;2.60;2.25;;;;;;;21.59;nan;-24417.16;5031852;28;20198;-66
2022/08/02 03:19:34;;;;;;;3.83;2.10;;;;;;;21.42;nan;-24412.47;5032183;28;20225;-67
2022/08/02 03:21:59;;;;;;;2.45;2.08;;;;;;;21.37;nan;-24410.94;5031551;28;20228;-65
2022/08/02 03:24:24;;;;;;;2.85;2.33;;;;;;;21.46;nan;-24413.44;5023841;28;20622;-67
2022/08/02 03:26:50;;;;;;;3.20;2.47;;;;;;;21.64;nan;-24418.28;5031889;28;20237;-66
2022/08/02 03:29:15;;;;;;;4.20;2.50;;;;;;;22.26;nan;-24435.44;5031256;28;20176;-66
2022/08/02 03:31:45;;;;;;;3.15;2.38;;;;;;;22.99;nan;-24455.38;5032090;28;20610;-67
2022/08/02 03:34:11;;;;;;;2.78;2.25;;;;;;;23.96;nan;-24481.72;5031925;28;20225;-67
2022/08/02 03:36:38;;;;;;;3.63;2.60;;;;;;;24.31;nan;-24491.25;5031062;28;20643;-67
2022/08/02 03:39:05;;;;;;;3.80;2.83;;;;;;;24.49;nan;-24496.34;5031381;28;20198;-67
2022/08/02 03:41:32;;;;;;;5.47;3.10;;;;;;;24.99;nan;-24509.84;5032408;28;20519;-67
2022/08/02 03:43:58;;;;;;;3.92;2.53;;;;;;;25.87;nan;-24533.81;5031974;28;20195;-67
2022/08/02 03:46:24;;;;;;;5.00;2.92;;;;;;;26.49;nan;-24550.56;5030960;28;20257;-66
2022/08/02 03:48:51;;;;;;;2.90;2.53;;;;;;;27.09;nan;-24567.03;5031570;28;20174;-67
2022/08/02 03:51:18;;;;;;;3.17;2.35;;;;;;;27.82;nan;-24586.78;5031853;28;20214;-66
2022/08/02 03:53:44;;;;;;;3.15;2.33;;;;;;;28.73;nan;-24611.41;5031524;28;20229;-66
2022/08/02 03:56:10;;;;;;;4.55;2.90;;;;;;;29.12;nan;-24621.94;5031479;28;20460;-67
2022/08/02 03:58:36;;;;;;;3.97;2.80;;;;;;;30.06;nan;-24647.19;5031070;28;20191;-67
2022/08/02 04:01:01;;;;;;;3.45;2.38;;;;;;;30.37;nan;-24655.50;5031770;28;20614;-64
2022/08/02 04:03:27;;;;;;;3.00;2.47;;;;;;;30.80;nan;-24667.22;5031443;28;20654;-65
2022/08/02 04:05:53;;;;;;;3.15;2.38;;;;;;;31.68;nan;-24690.88;5031334;28;20186;-65
2022/08/02 04:08:18;;;;;;;2.63;2.08;;;;;;;31.56;nan;-24687.75;5031472;28;20175;-66
2022/08/02 04:13:31;;;;;;;2.47;2.28;;;;;;;32.32;nan;-24708.00;5030214;28;20311;-67
2022/08/02 04:16:03;;;;;;;3.53;2.38;;;;;;;32.65;nan;-24716.97;5031255;28;20225;-68
2022/08/02 04:18:34;;;;;;;2.88;2.28;;;;;;;33.25;nan;-24733.09;5031378;28;20171;-65
2022/08/02 04:21:03;;;;;;;2.58;2.00;;;;;;;32.52;nan;-24713.28;5029596;28;20163;-66
2022/08/02 04:23:30;;;;;;;4.68;2.30;;;;;;;32.95;nan;-24724.81;5030407;28;20203;-66
2022/08/02 04:25:56;;;;;;;3.33;2.00;;;;;;;32.91;nan;-24723.88;5030535;28;20171;-67
2022/08/02 04:28:22;;;;;;;3.03;2.15;;;;;;;32.64;nan;-24716.56;5031034;28;20611;-67
2022/08/02 04:30:49;;;;;;;3.53;2.10;;;;;;;31.58;nan;-24688.31;5030145;28;20175;-66
2022/08/02 04:33:15;;;;;;;2.67;2.10;;;;;;;32.08;nan;-24701.63;5030371;28;20653;-66
2022/08/02 04:35:41;;;;;;;2.72;2.05;;;;;;;32.57;nan;-24714.66;5030230;28;20172;-66
2022/08/02 04:38:07;;;;;;;3.92;2.25;;;;;;;32.59;nan;-24715.31;5030761;28;20183;-66
2022/08/02 04:40:32;;;;;;;6.55;2.50;;;;;;;31.25;nan;-24679.31;5030142;28;20175;-70
2022/08/02 04:42:58;;;;;;;4.20;2.25;;;;;;;30.52;nan;-24659.72;5028666;28;20578;-66
2022/08/02 04:45:25;;;;;;;2.92;1.98;;;;;;;30.82;nan;-24667.63;5029862;28;20186;-67
2022/08/02 04:47:51;;;;;;;2.45;2.00;;;;;;;31.22;nan;-24678.38;5027501;28;20194;-67
2022/08/02 04:50:16;;;;;;;4.20;2.55;;;;;;;30.86;nan;-24668.84;5027259;28;20179;-65
2022/08/02 04:52:42;;;;;;;2.35;2.00;;;;;;;31.27;nan;-24679.72;5031590;28;20179;-68
2022/08/02 04:55:07;;;;;;;3.88;2.13;;;;;;;30.09;nan;-24648.13;5033638;28;20183;-65
2022/08/02 05:00:17;;;;;;;3.10;2.17;;;;;;;30.13;nan;-24649.09;5033800;28;20670;-68
2022/08/02 05:02:42;;;;;;;2.33;2.03;;;;;;;29.39;nan;-24629.16;5033953;28;20364;-66
2022/08/02 05:05:08;;;;;;;3.63;2.30;;;;;;;28.97;nan;-24617.97;5034070;28;20173;-67
2022/08/02 05:07:33;;;;;;;3.10;2.50;;;;;;;28.71;nan;-24610.88;5032730;28;20223;-65
2022/08/02 05:09:58;;;;;;;3.05;2.53;;;;;;;28.74;nan;-24611.69;5034239;28;20182;-68
2022/08/02 05:12:24;;;;;;;3.20;2.33;;;;;;;28.80;nan;-24613.31;5033135;28;20176;-65
2022/08/02 05:14:50;;;;;;;4.35;2.45;;;;;;;28.54;nan;-24606.22;5034155;28;20248;-67
2022/08/02 05:17:16;;;;;;;4.60;2.47;;;;;;;28.71;nan;-24610.72;5032916;28;20222;-65
2022/08/02 05:19:41;;;;;;;3.15;2.60;;;;;;;27.87;nan;-24588.13;5032646;28;20226;-66
2022/08/02 05:22:07;;;;;;;2.80;2.40;;;;;;;27.71;nan;-24583.63;5032118;28;20261;-64
2022/08/02 05:24:32;;;;;;;3.08;2.15;;;;;;;27.29;nan;-24572.25;5032805;28;20652;-67
2022/08/02 05:26:58;;;;;;;2.72;2.17;;;;;;;27.06;nan;-24566.22;5031853;28;20179;-65
2022/08/02 05:29:24;;;;;;;4.03;2.33;;;;;;;26.65;nan;-24555.09;5032599;28;20635;-66
2022/08/02 05:31:49;;;;;;;3.33;2.20;;;;;;;26.72;nan;-24556.88;5032207;28;20183;-66
2022/08/02 05:34:14;;;;;;;3.42;2.28;;;;;;;26.83;nan;-24559.91;5033646;28;20196;-67
2022/08/02 05:36:40;;;;;;;2.58;2.25;;;;;;;26.48;nan;-24550.44;5033123;28;20175;-64
2022/08/02 05:39:05;;;;;;;3.17;2.10;;;;;;;26.43;nan;-24548.91;5032355;28;20294;-64
2022/08/02 05:41:31;;;;;;;2.67;2.25;;;;;;;26.36;nan;-24547.28;5033930;28;20229;-75
2022/08/02 05:43:56;;;;;;;2.75;1.92;;;;;;;26.54;nan;-24551.94;5033596;28;20571;-66
2022/08/02 05:46:23;;;;;;;2.92;1.90;;;;;;;26.17;nan;-24542.03;5032900;28;20233;-66
2022/08/02 05:48:48;;;;;;;9.48;2.03;;;;;;;26.12;nan;-24540.69;5033657;28;20554;-67
2022/08/02 05:51:38;;;;;;;2.13;1.75;;;;;;;26.37;nan;-24547.53;5033790;28;20183;-67
2022/08/02 05:54:39;;;;;;;2.95;2.20;;;;;;;26.33;nan;-24546.31;5033028;28;20274;-67
2022/08/02 05:57:16;;;;;;;2.92;1.90;;;;;;;26.34;nan;-24546.72;5027593;28;20208;-66
2022/08/02 06:00:04;;;;;;;2.67;2.03;;;;;;;26.28;nan;-24545.06;5033420;28;20254;-67
2022/08/02 06:02:42;;;;;;;2.42;1.90;;;;;;;26.56;nan;-24552.63;5033120;28;20209;-68
2022/08/02 06:05:12;;;;;;;3.28;2.13;;;;;;;26.36;nan;-24547.13;5033250;28;20221;-65
2022/08/02 06:07:40;;;;;;;2.20;1.80;;;;;;;26.76;nan;-24558.13;5032180;28;20172;-67
2022/08/02 06:10:08;;;;;;;3.10;2.00;;;;;;;26.65;nan;-24554.97;5030432;28;20580;-66
2022/08/02 06:12:46;;;;;;;3.30;2.10;;;;;;;26.62;nan;-24554.13;5032588;28;20171;-67
2022/08/02 06:15:15;;;;;;;2.33;2.05;;;;;;;26.89;nan;-24561.41;5033327;28;20241;-69
2022/08/02 06:17:41;;;;;;;3.42;2.15;;;;;;;26.55;nan;-24552.34;5033505;28;20178;-68
2022/08/02 06:20:07;;;;;;;3.17;2.22;;;;;;;26.53;nan;-24551.66;5033200;28;20171;-68
2022/08/02 06:22:33;;;;;;;2.80;2.22;;;;;;;26.66;nan;-24555.22;5033405;28;20202;-69
2022/08/02 06:25:01;;;;;;;3.30;1.98;;;;;;;26.71;nan;-24556.59;5033400;28;20278;-66
2022/08/02 06:27:27;;;;;;;4.22;1.83;;;;;;;26.52;nan;-24551.38;5033521;28;20178;-67
2022/08/02 06:29:54;;;;;;;3.08;2.30;;;;;;;26.69;nan;-24556.06;5033356;28;20164;-66
2022/08/02 06:32:20;;;;;;;4.60;2.35;;;;;;;26.75;nan;-24557.69;5032699;28;20235;-67
2022/08/02 06:34:46;;;;;;;2.67;2.00;;;;;;;27.04;nan;-24565.53;5033245;28;20190;-67
2022/08/02 06:37:30;;;;;;;2.30;2.00;;;;;;;27.15;nan;-24568.69;5033277;28;20284;-66
2022/08/02 06:40:13;;;;;;;2.40;1.90;;;;;;;26.90;nan;-24561.81;5033011;28;20225;-68
2022/08/02 06:42:50;;;;;;;3.28;2.10;;;;;;;26.63;nan;-24554.41;5032956;28;20195;-67
2022/08/02 06:45:16;;;;;;;2.05;1.85;;;;;;;27.09;nan;-24567.03;5032977;28;20198;-67
2022/08/02 06:47:41;;;;;;;2.83;1.88;;;;;;;27.19;nan;-24569.63;5032817;28;20206;-68
2022/08/02 06:50:07;;;;;;;3.05;2.10;;;;;;;27.10;nan;-24567.16;5032760;28;20175;-66
2022/08/02 06:52:34;;;;;;;3.03;1.95;;;;;;;27.49;nan;-24577.72;5031885;28;20192;-67
2022/08/02 06:55:03;;;;;;;2.08;1.88;;;;;;;27.34;nan;-24573.75;5032169;28;20582;-66
2022/08/02 06:57:29;;;;;;;2.80;2.20;;;;;;;27.32;nan;-24573.06;5032901;28;20155;-68
2022/08/02 06:59:55;;;;;;;2.17;1.80;;;;;;;27.48;nan;-24577.44;5032740;28;20631;-66
2022/08/02 07:02:21;;;;;;;2.28;1.88;;;;;;;27.46;nan;-24576.91;5032415;28;20277;-66
2022/08/02 07:04:47;;;;;;;4.68;2.67;;;;;;;27.87;nan;-24588.00;5031921;28;20300;-68
2022/08/02 07:07:13;;;;;;;3.20;2.05;;;;;;;27.58;nan;-24580.19;5032785;28;20630;-67
2022/08/02 07:09:38;;;;;;;3.28;2.13;;;;;;;28.00;nan;-24591.69;5032231;28;20179;-65
2022/08/02 07:12:04;;;;;;;2.80;2.00;;;;;;;28.19;nan;-24596.63;5032242;28;20159;-68
2022/08/02 07:14:29;;;;;;;2.42;1.83;;;;;;;27.95;nan;-24590.34;5031418;28;20215;-67
2022/08/02 07:16:55;;;;;;;2.03;1.80;;;;;;;27.90;nan;-24588.97;5032603;28;20627;-68
2022/08/02 07:19:20;;;;;;;3.00;1.80;;;;;;;28.07;nan;-24593.47;5032200;28;20203;-68
2022/08/02 07:21:46;;;;;;;2.53;1.90;;;;;;;28.06;nan;-24593.34;5031388;28;20207;-68
2022/08/02 07:24:11;;;;;;;1.98;1.73;;;;;;;28.20;nan;-24597.03;5029913;28;20253;-66
2022/08/02 07:26:37;;;;;;;2.60;2.00;;;;;;;28.27;nan;-24598.97;5028971;28;20266;-69
2022/08/02 07:29:02;;;;;;;2.90;2.10;;;;;;;28.26;nan;-24598.53;5031998;28;20171;-67
2022/08/02 07:31:28;;;;;;;2.53;2.03;;;;;;;28.55;nan;-24606.47;5030648;28;20266;-68
2022/08/02 07:33:53;;;;;;;2.08;1.75;;;;;;;28.61;nan;-24607.97;5029187;28;20180;-65
2022/08/02 07:36:19;;;;;;;2.95;1.88;;;;;;;28.38;nan;-24601.84;5029993;28;20617;-68
2022/08/02 07:38:44;;;;;;;3.75;1.80;;;;;;;28.49;nan;-24604.97;5030328;28;20183;-66
2022/08/02 07:41:09;;;;;;;2.00;1.60;;;;;;;28.73;nan;-24611.41;5031885;28;20627;-68
2022/08/02 07:43:35;;;;;;;2.83;1.60;;;;;;;28.89;nan;-24615.66;5030361;28;20191;-69
2022/08/02 07:46:00;;;;;;;2.85;1.80;;;;;;;28.67;nan;-24609.75;5031484;28;20643;-69
2022/08/02 07:48:26;;;;;;;2.10;1.60;;;;;;;28.50;nan;-24605.13;5031619;28;20197;-68
2022/08/02 07:50:51;;;;;;;2.15;1.60;;;;;;;28.98;nan;-24618.25;5031596;28;20163;-66
2022/08/02 07:53:16;;;;;;;2.35;1.55;;;;;;;28.86;nan;-24614.97;5031154;28;20184;-66
2022/08/02 07:55:42;;;;;;;2.08;1.75;;;;;;;29.15;nan;-24622.75;5031503;28;20159;-66
2022/08/02 07:58:09;;;;;;;2.25;1.70;;;;;;;29.31;nan;-24627.13;5031193;28;20531;-69
2022/08/02 08:00:35;;;;;;;1.70;1.50;;;;;;;29.05;nan;-24620.00;5031331;28;20175;-66
2022/08/02 08:03:00;;;;;;;2.65;1.50;;;;;;;28.82;nan;-24613.72;5031393;28;20548;-68
2022/08/02 08:05:26;;;;;;;1.95;1.58;;;;;;;28.42;nan;-24602.94;5031495;28;20258;-65
2022/08/02 08:07:51;;;;;;;1.80;1.40;;;;;;;28.49;nan;-24604.84;5031070;28;20258;-66
2022/08/02 08:10:16;;;;;;;1.80;1.40;;;;;;;28.72;nan;-24611.13;5031152;28;20159;-66
2022/08/02 08:12:42;;;;;;;1.55;1.40;;;;;;;28.53;nan;-24605.94;5031178;28;20223;-67
2022/08/02 08:15:08;;;;;;;2.65;1.40;;;;;;;28.28;nan;-24599.09;5030925;28;20631;-66
2022/08/02 08:17:34;;;;;;;1.50;1.40;;;;;;;28.37;nan;-24601.56;5031061;28;20654;-67
2022/08/02 08:20:01;;;;;;;2.72;1.48;;;;;;;28.51;nan;-24605.38;5031078;28;20249;-68
2022/08/02 08:22:27;;;;;;;2.85;1.52;;;;;;;29.03;nan;-24619.34;5031104;28;20203;-66
2022/08/02 08:24:53;;;;;;;1.85;1.40;;;;;;;28.75;nan;-24611.97;5031676;28;20163;-68
2022/08/02 08:27:21;;;;;;;1.98;1.38;;;;;;;29.17;nan;-24623.16;5034946;28;20167;-68
2022/08/02 08:29:47;;;;;;;1.38;1.27;;;;;;;29.23;nan;-24624.78;5033724;28;20300;-67
2022/08/02 08:32:12;;;;;;;1.80;1.30;;;;;;;29.72;nan;-24638.19;5034945;28;20552;-67
2022/08/02 08:34:38;;;;;;;1.27;1.17;;;;;;;29.28;nan;-24626.16;5035077;28;20233;-66
2022/08/02 08:37:03;;;;;;;1.65;1.40;;;;;;;29.37;nan;-24628.63;5034379;28;20183;-68
2022/08/02 08:39:29;;;;;;;1.23;1.13;;;;;;;29.49;nan;-24631.91;5035083;28;20261;-68
2022/08/02 08:41:55;;;;;;;1.45;1.30;;;;;;;29.70;nan;-24637.63;5033622;28;20197;-67
2022/08/02 08:44:20;;;;;;;1.15;1.05;;;;;;;30.05;nan;-24646.91;5030519;28;20179;-68
2022/08/02 08:46:48;;;;;;;1.20;1.10;;;;;;;30.15;nan;-24649.63;5032369;28;20658;-66
2022/08/02 08:49:25;;;;;;;1.45;1.23;;;;;;;30.20;nan;-24651.13;5035150;28;20183;-66
2022/08/02 08:51:54;;;;;;;1.10;1.00;;;;;;;30.36;nan;-24655.22;5033832;28;20178;-68
2022/08/02 08:54:23;;;;;;;1.77;1.45;;;;;;;30.57;nan;-24660.94;5032430;28;20561;-65
2022/08/02 08:56:50;;;;;;;1.35;1.25;;;;;;;30.45;nan;-24657.66;5032667;28;20273;-65
2022/08/02 08:59:16;;;;;;;1.40;1.30;;;;;;;30.53;nan;-24659.84;5033902;28;20477;-66
2022/08/02 09:01:44;;;;;;;1.65;1.35;;;;;;;30.57;nan;-24661.09;5034880;28;20241;-65
2022/08/02 09:04:09;;;;;;;1.70;1.30;;;;;;;30.77;nan;-24666.25;5034705;28;20193;-68
2022/08/02 09:06:37;;;;;;;1.40;1.30;;;;;;;30.63;nan;-24662.59;5034610;28;20174;-68
2022/08/02 09:09:02;;;;;;;1.83;1.50;;;;;;;30.66;nan;-24663.53;5034878;28;20167;-67
2022/08/02 09:11:28;;;;;;;1.70;1.42;;;;;;;30.71;nan;-24664.91;5033952;28;20179;-67
2022/08/02 09:13:59;;;;;;;1.40;1.30;;;;;;;30.49;nan;-24658.91;5034547;28;20677;-66
2022/08/02 09:16:34;;;;;;;1.23;1.13;;;;;;;30.55;nan;-24660.53;5034464;28;20179;-65
2022/08/02 09:19:17;;;;;;;1.45;1.30;;;;;;;30.21;nan;-24651.41;5033043;28;20187;-67
2022/08/02 09:21:43;;;;;;;1.33;1.23;;;;;;;30.07;nan;-24647.44;5033621;28;20214;-66
2022/08/02 09:24:20;;;;;;;1.30;1.20;;;;;;;29.81;nan;-24640.50;5032511;28;20661;-67
2022/08/02 09:26:47;;;;;;;1.45;1.30;;;;;;;29.09;nan;-24621.09;5033351;28;20178;-66
2022/08/02 09:29:14;;;;;;;1.42;1.30;;;;;;;28.86;nan;-24614.97;5034131;28;20607;-66
2022/08/02 09:31:40;;;;;;;1.45;1.35;;;;;;;29.30;nan;-24626.84;5034884;28;20168;-67
2022/08/02 09:34:06;;;;;;;1.60;1.40;;;;;;;29.43;nan;-24630.25;5034457;28;20186;-65
2022/08/02 09:36:42;;;;;;;1.85;1.52;;;;;;;29.55;nan;-24633.53;5033553;28;20171;-66
2022/08/02 09:39:10;;;;;;;1.25;1.15;;;;;;;29.83;nan;-24641.19;5034356;28;20208;-66
2022/08/02 09:41:40;;;;;;;1.65;1.50;;;;;;;29.81;nan;-24640.63;5034281;28;20182;-65
2022/08/02 09:44:07;;;;;;;3.03;1.60;;;;;;;29.31;nan;-24627.00;5034407;28;20203;-67
2022/08/02 09:46:38;;;;;;;1.42;1.27;;;;;;;29.17;nan;-24623.16;5033974;28;20198;-66
2022/08/02 09:49:13;;;;;;;1.98;1.45;;;;;;;29.60;nan;-24634.91;5034089;28;20265;-65
2022/08/02 09:51:45;;;;;;;2.25;1.45;;;;;;;29.79;nan;-24640.09;5034072;28;20194;-65
2022/08/02 09:54:16;;;;;;;1.75;1.50;;;;;;;29.74;nan;-24638.72;5048897;28;20718;-64
2022/08/02 09:56:45;;;;;;;1.50;1.40;;;;;;;30.05;nan;-24647.03;5034133;28;20180;-66
2022/08/02 09:59:11;;;;;;;1.55;1.40;;;;;;;30.13;nan;-24649.09;5033802;28;20594;-65
2022/08/02 10:01:37;;;;;;;1.80;1.50;;;;;;;30.45;nan;-24657.66;5032617;28;20296;-67
2022/08/02 10:04:05;;;;;;;1.83;1.50;;;;;;;30.52;nan;-24659.72;5033620;28;20639;-65
2022/08/02 10:06:32;;;;;;;1.40;1.30;;;;;;;30.89;nan;-24669.53;5033618;28;20173;-66
2022/08/02 10:08:58;;;;;;;1.30;1.20;;;;;;;31.45;nan;-24684.75;5034042;28;20205;-67
2022/08/02 10:11:26;;;;;;;1.77;1.50;;;;;;;31.42;nan;-24683.94;5033979;28;20556;-66
2022/08/02 10:13:52;;;;;;;1.88;1.52;;;;;;;31.25;nan;-24679.31;5032902;28;20234;-65
2022/08/02 10:16:23;;;;;;;1.30;1.20;;;;;;;31.14;nan;-24676.34;5033580;28;20463;-66
2022/08/02 10:18:53;;;;;;;1.30;1.20;;;;;;;30.61;nan;-24662.16;5033914;28;20562;-67
2022/08/02 10:21:39;;;;;;;1.75;1.42;;;;;;;30.55;nan;-24660.41;5033342;28;20688;-66
2022/08/02 10:24:07;;;;;;;1.73;1.50;;;;;;;30.56;nan;-24660.81;5033614;28;20623;-67
2022/08/02 10:26:33;;;;;;;1.48;1.30;;;;;;;30.34;nan;-24654.81;5033773;28;20162;-66
2022/08/02 10:28:58;;;;;;;1.60;1.50;;;;;;;30.33;nan;-24654.53;5033250;28;20170;-67
2022/08/02 10:31:29;;;;;;;1.98;1.35;;;;;;;30.81;nan;-24667.47;5033136;28;20596;-67
2022/08/02 10:33:57;;;;;;;1.42;1.30;;;;;;;31.10;nan;-24675.25;5032976;28;20174;-66
2022/08/02 10:36:26;;;;;;;1.65;1.42;;;;;;;31.23;nan;-24678.78;5031645;28;20194;-67
2022/08/02 10:38:53;;;;;;;1.33;1.23;;;;;;;31.51;nan;-24686.25;5033359;28;20173;-66
2022/08/02 10:41:49;;;;;;;1.80;1.25;;;;;;;31.80;nan;-24694.00;5033329;28;20570;-67
2022/08/02 10:44:24;;;;;;;1.30;1.20;;;;;;;31.66;nan;-24690.34;5028083;28;20206;-67
2022/08/02 10:46:49;;;;;;;1.70;1.50;;;;;;;31.77;nan;-24693.31;5033362;28;20178;-66
2022/08/02 10:49:17;;;;;;;1.75;1.50;;;;;;;31.69;nan;-24691.03;5032051;28;20277;-68
2022/08/02 10:51:53;;;;;;;1.65;1.45;;;;;;;31.95;nan;-24698.22;5033071;28;20163;-66
2022/08/02 10:54:22;;;;;;;2.22;1.58;;;;;;;32.07;nan;-24701.34;5033045;28;20169;-68
2022/08/02 10:56:50;;;;;;;1.52;1.42;;;;;;;31.28;nan;-24680.13;5032941;28;20217;-67
2022/08/02 10:59:27;;;;;;;1.90;1.60;;;;;;;31.03;nan;-24673.47;5032955;28;20162;-63
2022/08/02 11:02:01;;;;;;;2.72;1.60;;;;;;;30.48;nan;-24658.63;5032796;28;20165;-67
2022/08/02 11:04:35;;;;;;;1.85;1.38;;;;;;;31.16;nan;-24676.88;5032966;28;20543;-65
2022/08/02 11:07:07;;;;;;;1.65;1.40;;;;;;;31.20;nan;-24677.84;5032655;28;20247;-65
2022/08/02 11:09:33;;;;;;;1.50;1.25;;;;;;;31.13;nan;-24676.06;5032752;28;20577;-63
2022/08/02 11:12:14;;;;;;;2.50;1.50;;;;;;;31.46;nan;-24685.03;5032494;28;20169;-66
2022/08/02 11:14:44;;;;;;;8.93;2.08;;;;;;;31.33;nan;-24681.50;5032811;28;20229;-65
2022/08/02 11:17:11;;;;;;;1.58;1.48;;;;;;;31.33;nan;-24681.38;5032763;28;20699;-66
2022/08/02 11:20:07;;;;;;;1.95;1.65;;;;;;;31.05;nan;-24673.88;5032316;28;20174;-66
2022/08/02 11:22:34;;;;;;;2.22;1.67;;;;;;;31.01;nan;-24672.78;5032360;28;20542;-65
2022/08/02 11:25:22;;;;;;;1.90;1.60;;;;;;;30.89;nan;-24669.66;5032358;28;20182;-65
2022/08/02 11:27:58;;;;;;;1.77;1.55;;;;;;;30.96;nan;-24671.56;5022933;28;20178;-65
2022/08/02 11:30:25;;;;;;;1.80;1.40;;;;;;;31.38;nan;-24682.72;5032650;28;20171;-65
2022/08/02 11:32:55;;;;;;;1.63;1.42;;;;;;;31.62;nan;-24689.25;5032608;28;20232;-67
2022/08/02 11:35:21;;;;;;;1.70;1.50;;;;;;;31.93;nan;-24697.69;5032281;28;20178;-64
2022/08/02 11:37:47;;;;;;;1.90;1.60;;;;;;;32.13;nan;-24702.84;5032527;28;20174;-66
2022/08/02 11:40:17;;;;;;;1.50;1.40;;;;;;;31.76;nan;-24693.06;5032017;28;20175;-67
2022/08/02 11:42:50;;;;;;;1.67;1.45;;;;;;;31.74;nan;-24692.50;5030442;28;20229;-65
2022/08/02 11:45:16;;;;;;;1.73;1.50;;;;;;;31.46;nan;-24684.91;5031696;28;20171;-67
2022/08/02 11:47:49;;;;;;;1.73;1.50;;;;;;;31.58;nan;-24688.03;5031709;28;20249;-66
2022/08/02 11:50:16;;;;;;;2.72;1.60;;;;;;;31.89;nan;-24696.47;5031921;28;20166;-65
2022/08/02 11:52:42;;;;;;;1.60;1.50;;;;;;;32.21;nan;-24705.16;5030075;28;20280;-67